createdAt,value
2018-05-11T00:01:09.648Z,13.80
2018-05-11T00:03:37.138Z,13.80
2018-05-11T00:06:05.415Z,13.90
2018-05-11T00:08:33.674Z,13.90
2018-05-11T00:11:01.942Z,13.90
2018-05-11T00:13:29.508Z,13.90
2018-05-11T00:15:57.794Z,14.10
2018-05-11T00:18:26.162Z,14.10
2018-05-11T00:20:54.434Z,14.10
2018-05-11T00:23:22.131Z,14.10
2018-05-11T00:25:49.649Z,14.10
2018-05-11T00:28:17.125Z,14.00
2018-05-11T00:30:45.400Z,14.00
2018-05-11T00:33:13.678Z,13.90
2018-05-11T00:35:41.954Z,13.90
2018-05-11T00:38:19.401Z,13.90
2018-05-11T00:40:46.880Z,13.90
2018-05-11T00:43:14.427Z,13.90
2018-05-11T00:45:41.940Z,13.90
2018-05-11T00:48:09.463Z,13.80
2018-05-11T00:50:37.733Z,13.90
2018-05-11T00:53:07.499Z,13.80
2018-05-11T00:55:45.757Z,13.80
2018-05-11T00:58:13.273Z,13.80
2018-05-11T01:00:40.783Z,13.80
2018-05-11T01:03:09.048Z,13.80
2018-05-11T01:05:37.334Z,13.70
2018-05-11T01:08:05.654Z,13.70
2018-05-11T01:10:33.150Z,13.70
2018-05-11T01:13:00.828Z,13.60
2018-05-11T01:15:29.220Z,13.50
2018-05-11T01:17:56.741Z,13.50
2018-05-11T01:20:24.456Z,13.50
2018-05-11T01:22:51.980Z,13.50
2018-05-11T01:25:20.299Z,13.40
2018-05-11T01:27:47.810Z,13.40
2018-05-11T01:30:15.391Z,13.30
2018-05-11T01:32:43.749Z,13.20
2018-05-11T01:35:12.107Z,13.20
2018-05-11T01:37:39.563Z,13.20
2018-05-11T01:40:07.093Z,13.30
2018-05-11T01:42:34.717Z,13.20
2018-05-11T01:45:02.995Z,13.20
2018-05-11T01:47:30.555Z,13.20
2018-05-11T01:49:58.067Z,13.10
2018-05-11T01:52:25.632Z,13.10
2018-05-11T01:54:53.128Z,12.90
2018-05-11T01:57:20.640Z,12.90
2018-05-11T01:59:48.150Z,12.80
2018-05-11T02:02:15.658Z,12.90
2018-05-11T02:04:43.172Z,12.90
2018-05-11T02:07:10.729Z,12.90
2018-05-11T02:09:38.236Z,12.90
2018-05-11T02:12:05.955Z,12.90
2018-05-11T02:14:33.565Z,12.80
2018-05-11T02:17:01.157Z,12.80
2018-05-11T02:19:29.432Z,12.80
2018-05-11T02:21:57.747Z,12.70
2018-05-11T02:24:25.329Z,12.70
2018-05-11T02:26:52.824Z,12.70
2018-05-11T02:29:21.224Z,12.60
2018-05-11T02:31:49.600Z,12.50
2018-05-11T02:34:17.245Z,12.50
2018-05-11T02:36:45.504Z,12.00
2018-05-11T02:39:13.008Z,11.90
2018-05-11T02:41:40.500Z,11.80
2018-05-11T02:44:08.013Z,11.70
2018-05-11T02:46:35.538Z,11.50
2018-05-11T02:49:03.060Z,11.30
2018-05-11T02:51:30.567Z,11.30
2018-05-11T02:53:59.000Z,11.20
2018-05-11T02:56:26.503Z,11.20
2018-05-11T02:58:54.924Z,11.10
2018-05-11T03:01:22.433Z,11.00
2018-05-11T03:03:49.941Z,11.00
2018-05-11T03:06:17.472Z,10.90
2018-05-11T03:08:44.974Z,10.90
2018-05-11T03:11:13.100Z,10.90
2018-05-11T03:13:41.480Z,10.90
2018-05-11T03:16:09.048Z,10.90
2018-05-11T03:18:37.419Z,10.80
2018-05-11T03:21:05.696Z,10.70
2018-05-11T03:23:33.202Z,10.60
2018-05-11T03:26:00.724Z,10.60
2018-05-11T03:28:28.229Z,10.60
2018-05-11T03:30:55.758Z,10.50
2018-05-11T03:33:23.256Z,10.50
2018-05-11T03:35:50.770Z,10.70
2018-05-11T03:38:18.254Z,10.90
2018-05-11T03:40:46.699Z,11.00
2018-05-11T03:43:14.212Z,11.10
2018-05-11T03:45:41.889Z,11.00
2018-05-11T03:48:10.153Z,10.90
2018-05-11T03:50:37.693Z,10.90
2018-05-11T03:53:05.199Z,11.00
2018-05-11T03:55:32.703Z,11.10
2018-05-11T03:58:00.207Z,11.10
2018-05-11T04:00:28.469Z,11.10
2018-05-11T04:03:08.629Z,11.20
2018-05-11T04:05:48.729Z,11.30
2018-05-11T04:08:28.183Z,11.30
2018-05-11T04:10:55.681Z,11.40
2018-05-11T04:13:23.973Z,11.60
2018-05-11T04:15:51.526Z,11.60
2018-05-11T04:18:19.037Z,11.70
2018-05-11T04:20:46.551Z,11.80
2018-05-11T04:23:14.839Z,12.00
2018-05-11T04:25:42.346Z,12.00
2018-05-11T04:28:09.873Z,12.10
2018-05-11T04:30:37.461Z,12.20
2018-05-11T04:33:04.997Z,12.30
2018-05-11T04:35:32.509Z,12.40
2018-05-11T04:38:00.020Z,12.50
2018-05-11T04:40:27.583Z,12.60
2018-05-11T04:42:55.109Z,12.70
2018-05-11T04:45:22.839Z,12.80
2018-05-11T04:47:50.279Z,12.90
2018-05-11T04:50:18.681Z,13.10
2018-05-11T04:52:46.933Z,13.20
2018-05-11T04:55:15.220Z,13.30
2018-05-11T04:57:43.531Z,13.30
2018-05-11T05:00:11.111Z,13.30
2018-05-11T05:02:38.605Z,13.20
2018-05-11T05:05:06.901Z,12.90
2018-05-11T05:07:34.387Z,12.80
2018-05-11T05:10:01.949Z,12.90
2018-05-11T05:12:29.825Z,13.00
2018-05-11T05:14:57.249Z,13.20
2018-05-11T05:17:24.761Z,13.20
2018-05-11T05:19:52.290Z,13.40
2018-05-11T05:22:19.833Z,13.60
2018-05-11T05:24:47.349Z,13.70
2018-05-11T05:27:14.883Z,14.00
2018-05-11T05:29:42.387Z,14.20
2018-05-11T05:32:09.915Z,14.30
2018-05-11T05:34:37.407Z,14.40
2018-05-11T05:37:04.949Z,14.60
2018-05-11T05:39:33.323Z,15.20
2018-05-11T05:42:01.609Z,15.60
2018-05-11T05:44:29.899Z,16.00
2018-05-11T05:46:57.417Z,15.90
2018-05-11T05:49:25.053Z,16.00
2018-05-11T05:51:52.562Z,16.00
2018-05-11T05:54:20.947Z,15.70
2018-05-11T05:56:49.228Z,15.80
2018-05-11T05:59:16.743Z,15.80
2018-05-11T06:01:44.253Z,16.00
2018-05-11T06:04:11.781Z,16.20
2018-05-11T06:06:40.071Z,15.90
2018-05-11T06:09:07.636Z,15.90
2018-05-11T06:11:35.166Z,15.90
2018-05-11T06:14:03.860Z,16.20
2018-05-11T06:16:32.124Z,16.60
2018-05-11T06:18:59.686Z,16.60
2018-05-11T06:21:27.168Z,16.40
2018-05-11T06:23:54.685Z,16.00
2018-05-11T06:26:22.240Z,15.80
2018-05-11T06:28:49.742Z,15.80
2018-05-11T06:31:17.299Z,16.30
2018-05-11T06:33:44.835Z,16.80
2018-05-11T06:36:12.408Z,17.20
2018-05-11T06:38:40.784Z,18.10
2018-05-11T06:41:09.056Z,18.40
2018-05-11T06:43:37.279Z,18.50
2018-05-11T06:46:04.845Z,18.50
2018-05-11T06:48:33.073Z,18.90
2018-05-11T06:51:01.380Z,19.00
2018-05-11T06:53:28.893Z,19.00
2018-05-11T06:55:57.307Z,19.80
2018-05-11T06:58:25.541Z,20.00
2018-05-11T07:00:53.818Z,20.30
2018-05-11T07:03:22.096Z,20.30
2018-05-11T07:05:49.611Z,20.30
2018-05-11T07:08:17.147Z,20.50
2018-05-11T07:10:44.671Z,20.10
2018-05-11T07:13:12.927Z,20.30
2018-05-11T07:15:40.432Z,20.30
2018-05-11T07:18:07.935Z,20.70
2018-05-11T07:20:35.498Z,20.70
2018-05-11T07:23:03.090Z,20.50
2018-05-11T07:25:31.376Z,21.30
2018-05-11T07:27:58.933Z,21.30
2018-05-11T07:30:26.488Z,21.60
2018-05-11T07:32:54.801Z,21.80
2018-05-11T07:35:22.300Z,21.80
2018-05-11T07:37:49.802Z,22.10
2018-05-11T07:40:17.317Z,22.20
2018-05-11T07:42:44.840Z,21.70
2018-05-11T07:45:12.372Z,21.90
2018-05-11T07:47:39.898Z,21.40
2018-05-11T07:50:08.181Z,20.40
2018-05-11T07:52:36.500Z,20.10
2018-05-11T07:55:04.108Z,20.00
2018-05-11T07:57:32.384Z,20.00
2018-05-11T08:00:00.668Z,19.90
2018-05-11T08:02:28.960Z,20.00
2018-05-11T08:04:56.504Z,20.00
2018-05-11T08:07:24.780Z,20.20
2018-05-11T08:09:53.160Z,20.20
2018-05-11T08:12:20.741Z,20.20
2018-05-11T08:14:48.285Z,20.30
2018-05-11T08:17:16.545Z,20.90
2018-05-11T08:19:44.823Z,21.10
2018-05-11T08:22:13.085Z,21.00
2018-05-11T08:24:40.611Z,21.00
2018-05-11T08:27:08.134Z,20.80
2018-05-11T08:29:35.706Z,20.60
2018-05-11T08:32:03.206Z,20.70
2018-05-11T08:34:31.622Z,20.20
2018-05-11T08:36:59.202Z,20.20
2018-05-11T08:39:26.779Z,20.00
2018-05-11T08:41:54.274Z,19.30
2018-05-11T08:44:22.537Z,18.60
2018-05-11T08:46:51.717Z,18.40
2018-05-11T08:49:19.356Z,18.40
2018-05-11T08:51:46.855Z,18.40
2018-05-11T08:54:14.742Z,18.40
2018-05-11T08:56:43.049Z,18.50
2018-05-11T08:59:10.545Z,18.50
2018-05-11T09:01:39.056Z,18.50
2018-05-11T09:04:07.375Z,18.60
2018-05-11T09:06:34.949Z,18.60
2018-05-11T09:09:02.461Z,18.80
2018-05-11T09:11:29.986Z,19.30
2018-05-11T09:13:57.673Z,19.30
2018-05-11T09:16:25.980Z,19.30
2018-05-11T09:18:53.519Z,19.30
2018-05-11T09:21:22.218Z,20.40
2018-05-11T09:23:51.007Z,20.40
2018-05-11T09:26:18.582Z,20.90
2018-05-11T09:28:46.056Z,21.60
2018-05-11T09:31:13.585Z,22.10
2018-05-11T09:33:41.149Z,22.30
2018-05-11T09:36:09.443Z,22.70
2018-05-11T09:38:37.557Z,23.20
2018-05-11T09:41:05.910Z,22.80
2018-05-11T09:43:33.725Z,22.70
2018-05-11T09:46:01.582Z,23.00
2018-05-11T09:48:29.749Z,23.40
2018-05-11T09:50:58.068Z,24.00
2018-05-11T09:53:25.585Z,23.90
2018-05-11T09:55:53.853Z,23.50
2018-05-11T09:58:22.150Z,23.60
2018-05-11T10:00:50.742Z,23.50
2018-05-11T10:03:18.160Z,23.50
2018-05-11T10:05:46.426Z,22.80
2018-05-11T10:08:14.165Z,22.80
2018-05-11T10:10:41.656Z,22.40
2018-05-11T10:13:20.819Z,22.40
2018-05-11T10:15:48.390Z,22.30
2018-05-11T10:18:15.943Z,22.90
2018-05-11T10:20:43.513Z,22.90
2018-05-11T10:23:12.198Z,23.30
2018-05-11T10:25:39.785Z,23.30
2018-05-11T10:28:07.411Z,23.10
2018-05-11T10:30:34.905Z,23.00
2018-05-11T10:33:02.419Z,22.80
2018-05-11T10:35:30.025Z,22.70
2018-05-11T10:37:57.620Z,22.50
2018-05-11T10:40:25.280Z,22.30
2018-05-11T10:42:52.815Z,22.40
2018-05-11T10:45:20.381Z,23.00
2018-05-11T10:47:48.648Z,23.40
2018-05-11T10:50:16.167Z,23.40
2018-05-11T10:52:43.673Z,23.40
2018-05-11T10:55:11.171Z,23.80
2018-05-11T10:57:39.413Z,23.70
2018-05-11T11:00:07.765Z,23.90
2018-05-11T11:02:35.298Z,23.90
2018-05-11T11:05:02.895Z,24.00
2018-05-11T11:07:30.432Z,23.90
2018-05-11T11:09:58.042Z,24.20
2018-05-11T11:12:25.572Z,24.30
2018-05-11T11:14:53.999Z,23.60
2018-05-11T11:17:21.618Z,23.60
2018-05-11T11:19:49.908Z,23.50
2018-05-11T11:22:17.456Z,23.50
2018-05-11T11:24:45.850Z,24.10
2018-05-11T11:27:13.353Z,24.10
2018-05-11T11:29:40.885Z,24.00
2018-05-11T11:32:09.436Z,23.90
2018-05-11T11:34:37.672Z,23.90
2018-05-11T11:37:05.279Z,23.40
2018-05-11T11:39:33.743Z,22.00
2018-05-11T11:42:02.051Z,22.30
2018-05-11T11:44:29.541Z,22.20
2018-05-11T11:46:57.169Z,22.70
2018-05-11T11:49:24.733Z,22.90
2018-05-11T11:51:52.227Z,22.60
2018-05-11T11:54:19.748Z,22.90
2018-05-11T11:56:47.314Z,23.00
2018-05-11T11:59:16.870Z,22.50
2018-05-11T12:01:45.173Z,22.40
2018-05-11T12:04:12.694Z,22.40
2018-05-11T12:06:40.215Z,22.30
2018-05-11T12:09:07.833Z,22.50
2018-05-11T12:11:36.069Z,23.00
2018-05-11T12:14:03.631Z,23.00
2018-05-11T12:16:31.216Z,22.60
2018-05-11T12:18:59.544Z,22.20
2018-05-11T12:21:32.224Z,22.20
2018-05-11T12:23:59.778Z,22.30
2018-05-11T12:26:27.268Z,22.50
2018-05-11T12:28:54.852Z,22.20
2018-05-11T12:31:23.148Z,22.10
2018-05-11T12:33:50.628Z,22.10
2018-05-11T12:36:18.273Z,22.00
2018-05-11T12:38:45.750Z,21.70
2018-05-11T12:41:13.329Z,21.70
2018-05-11T12:43:41.518Z,21.70
2018-05-11T12:46:09.036Z,21.70
2018-05-11T12:48:36.534Z,21.50
2018-05-11T12:51:04.829Z,21.20
2018-05-11T12:53:33.096Z,21.30
2018-05-11T12:56:00.611Z,21.30
2018-05-11T12:58:28.126Z,21.30
2018-05-11T13:00:56.448Z,21.60
2018-05-11T13:03:23.928Z,21.60
2018-05-11T13:05:51.467Z,21.60
2018-05-11T13:08:19.014Z,21.50
2018-05-11T13:10:51.500Z,21.30
2018-05-11T13:13:19.007Z,21.00
2018-05-11T13:15:47.327Z,20.90
2018-05-11T13:18:21.300Z,20.80
2018-05-11T13:20:49.920Z,20.90
2018-05-11T13:23:17.877Z,20.80
2018-05-11T13:25:47.479Z,20.80
2018-05-11T13:28:15.019Z,20.80
2018-05-11T13:30:43.332Z,21.10
2018-05-11T13:33:10.935Z,21.00
2018-05-11T13:35:38.446Z,21.30
2018-05-11T13:38:06.005Z,21.50
2018-05-11T13:40:43.250Z,21.80
2018-05-11T13:43:11.573Z,22.00
2018-05-11T13:45:46.209Z,21.80
2018-05-11T13:48:13.752Z,21.40
2018-05-11T13:50:41.313Z,21.20
2018-05-11T13:53:08.801Z,21.10
2018-05-11T13:55:36.529Z,21.10
2018-05-11T13:58:04.133Z,21.00
2018-05-11T14:00:31.655Z,21.10
2018-05-11T14:02:59.184Z,21.30
2018-05-11T14:05:26.725Z,21.30
2018-05-11T14:07:55.017Z,21.60
2018-05-11T14:10:23.335Z,21.40
2018-05-11T14:12:50.829Z,21.40
2018-05-11T14:15:18.379Z,21.20
2018-05-11T14:17:46.039Z,21.30
2018-05-11T14:20:13.535Z,21.50
2018-05-11T14:22:41.045Z,21.60
2018-05-11T14:25:08.577Z,21.70
2018-05-11T14:27:36.213Z,21.70
2018-05-11T14:30:03.731Z,21.50
2018-05-11T14:32:31.255Z,21.40
2018-05-11T14:34:58.749Z,21.20
2018-05-11T14:37:27.751Z,21.10
2018-05-11T14:39:55.621Z,21.10
2018-05-11T14:42:23.199Z,21.10
2018-05-11T14:44:51.484Z,21.10
2018-05-11T14:47:19.763Z,21.30
2018-05-11T14:49:47.524Z,21.20
2018-05-11T14:52:14.975Z,21.10
2018-05-11T14:54:47.349Z,21.30
2018-05-11T14:57:15.651Z,21.30
2018-05-11T14:59:43.157Z,21.30
2018-05-11T15:02:10.657Z,21.30
2018-05-11T15:04:38.191Z,21.10
2018-05-11T15:07:06.463Z,21.30
2018-05-11T15:09:33.967Z,21.30
2018-05-11T15:12:01.503Z,21.10
2018-05-11T15:14:28.959Z,20.90
2018-05-11T15:16:57.249Z,20.60
2018-05-11T15:19:24.757Z,20.60
2018-05-11T15:21:53.555Z,20.50
2018-05-11T15:24:21.128Z,20.50
2018-05-11T15:26:48.577Z,20.50
2018-05-11T15:29:16.953Z,20.60
2018-05-11T15:31:45.199Z,20.70
2018-05-11T15:34:12.770Z,20.70
2018-05-11T15:36:40.395Z,20.80
2018-05-11T15:39:07.981Z,20.90
2018-05-11T15:41:35.508Z,20.80
2018-05-11T15:44:03.026Z,20.90
2018-05-11T15:46:31.279Z,21.00
2018-05-11T15:48:58.795Z,21.00
2018-05-11T15:51:26.350Z,21.00
2018-05-11T15:53:53.873Z,20.90
2018-05-11T15:56:22.249Z,20.90
2018-05-11T15:58:50.666Z,21.10
2018-05-11T16:01:18.152Z,21.10
2018-05-11T16:03:45.706Z,21.30
2018-05-11T16:06:13.326Z,21.40
2018-05-11T16:08:41.199Z,21.40
2018-05-11T16:11:08.697Z,21.50
2018-05-11T16:13:36.202Z,21.60
2018-05-11T16:16:04.485Z,21.60
2018-05-11T16:18:31.996Z,21.60
2018-05-11T16:20:59.501Z,21.50
2018-05-11T16:23:27.038Z,21.30
2018-05-11T16:25:54.543Z,21.20
2018-05-11T16:28:22.135Z,21.10
2018-05-11T16:30:49.621Z,21.00
2018-05-11T16:33:17.871Z,20.80
2018-05-11T16:35:45.409Z,20.80
2018-05-11T16:38:12.945Z,20.70
2018-05-11T16:40:40.461Z,20.60
2018-05-11T16:43:09.120Z,20.50
2018-05-11T16:45:36.641Z,20.50
2018-05-11T16:48:04.601Z,20.50
2018-05-11T16:50:32.611Z,20.50
2018-05-11T16:53:00.122Z,20.50
2018-05-11T16:55:28.802Z,20.60
2018-05-11T16:57:57.075Z,20.70
2018-05-11T17:00:24.657Z,20.70
2018-05-11T17:02:52.155Z,20.70
2018-05-11T17:05:19.647Z,20.70
2018-05-11T17:07:47.908Z,20.70
2018-05-11T17:10:16.289Z,20.60
2018-05-11T17:12:44.672Z,20.60
2018-05-11T17:15:13.531Z,20.40
2018-05-11T17:17:41.127Z,20.40
2018-05-11T17:20:09.372Z,20.30
2018-05-11T17:22:37.696Z,20.20
2018-05-11T17:25:05.936Z,20.20
2018-05-11T17:27:39.688Z,20.10
2018-05-11T17:30:07.247Z,20.10
2018-05-11T17:32:34.815Z,20.10
2018-05-11T17:35:02.311Z,20.10
2018-05-11T17:37:29.845Z,20.10
2018-05-11T17:39:57.359Z,20.00
2018-05-11T17:42:25.622Z,20.00
2018-05-11T17:44:53.884Z,19.90
2018-05-11T17:47:22.173Z,19.90
2018-05-11T17:49:50.513Z,19.90
2018-05-11T17:52:18.096Z,19.90
2018-05-11T17:54:46.411Z,19.90
2018-05-11T17:57:14.056Z,19.90
2018-05-11T17:59:43.264Z,19.90
2018-05-11T18:02:10.761Z,19.90
2018-05-11T18:04:38.283Z,19.90
2018-05-11T18:07:05.780Z,19.90
2018-05-11T18:09:33.328Z,19.80
2018-05-11T18:12:00.917Z,19.70
2018-05-11T18:14:28.354Z,19.70
2018-05-11T18:16:55.873Z,19.70
2018-05-11T18:19:23.396Z,19.70
2018-05-11T18:21:52.389Z,19.60
2018-05-11T18:24:20.659Z,19.50
2018-05-11T18:26:49.656Z,19.50
2018-05-11T18:29:17.536Z,19.50
2018-05-11T18:31:45.812Z,19.50
2018-05-11T18:34:14.076Z,19.40
2018-05-11T18:36:42.378Z,19.40
2018-05-11T18:39:09.879Z,19.40
2018-05-11T18:41:37.414Z,19.30
2018-05-11T18:44:04.929Z,19.30
2018-05-11T18:46:32.497Z,19.30
2018-05-11T18:49:00.799Z,19.20
2018-05-11T18:51:28.374Z,19.20
2018-05-11T18:53:56.244Z,19.20
2018-05-11T18:56:24.267Z,19.20
2018-05-11T18:58:52.538Z,19.10
2018-05-11T19:01:21.071Z,19.10
2018-05-11T19:03:48.568Z,19.10
2018-05-11T19:06:16.113Z,19.00
2018-05-11T19:08:44.424Z,18.90
2018-05-11T19:11:13.460Z,18.90
2018-05-11T19:13:41.282Z,18.90
2018-05-11T19:16:09.560Z,18.90
2018-05-11T19:18:37.870Z,18.80
2018-05-11T19:21:05.404Z,18.80
2018-05-11T19:23:33.076Z,18.70
2018-05-11T19:26:00.633Z,18.70
2018-05-11T19:28:28.869Z,18.50
2018-05-11T19:30:58.843Z,18.40
2018-05-11T19:33:26.379Z,18.40
2018-05-11T19:35:53.907Z,18.30
2018-05-11T19:38:22.174Z,18.20
2018-05-11T19:40:50.470Z,18.20
2018-05-11T19:43:18.732Z,18.20
2018-05-11T19:45:46.993Z,18.20
2018-05-11T19:48:14.553Z,18.20
2018-05-11T19:50:46.221Z,18.20
2018-05-11T19:53:13.821Z,18.10
2018-05-11T19:55:41.377Z,18.00
2018-05-11T19:58:08.895Z,18.00
2018-05-11T20:00:42.215Z,17.90
2018-05-11T20:03:10.516Z,17.80
2018-05-11T20:05:38.047Z,17.80
2018-05-11T20:08:06.525Z,17.80
2018-05-11T20:10:34.917Z,17.80
2018-05-11T20:13:03.159Z,17.80
2018-05-11T20:15:31.671Z,17.80
2018-05-11T20:17:59.925Z,17.70
2018-05-11T20:20:28.757Z,17.70
2018-05-11T20:22:56.245Z,17.70
2018-05-11T20:25:23.869Z,17.70
2018-05-11T20:27:51.529Z,17.70
2018-05-11T20:30:19.555Z,17.60
2018-05-11T20:32:48.642Z,17.60
2018-05-11T20:35:16.176Z,17.60
2018-05-11T20:37:43.672Z,17.50
2018-05-11T20:40:14.684Z,17.40
2018-05-11T20:42:42.305Z,17.40
2018-05-11T20:45:09.837Z,17.30
2018-05-11T20:47:38.138Z,17.30
2018-05-11T20:50:05.725Z,17.30
2018-05-11T20:52:33.262Z,17.20
2018-05-11T20:55:00.786Z,17.20
2018-05-11T20:57:29.051Z,17.20
2018-05-11T20:59:56.529Z,17.20
2018-05-11T21:02:24.827Z,17.30
2018-05-11T21:04:52.381Z,17.20
2018-05-11T21:07:20.721Z,17.20
2018-05-11T21:09:48.235Z,17.20
2018-05-11T21:12:15.761Z,17.30
2018-05-11T21:14:44.088Z,17.20
2018-05-11T21:17:11.672Z,17.20
2018-05-11T21:19:39.226Z,17.20
2018-05-11T21:22:06.755Z,17.20
2018-05-11T21:24:34.287Z,17.10
2018-05-11T21:27:01.885Z,17.10
2018-05-11T21:29:29.409Z,17.00
2018-05-11T21:31:56.961Z,17.00
2018-05-11T21:34:27.231Z,17.00
2018-05-11T21:36:56.465Z,16.90
2018-05-11T21:39:24.797Z,16.80
2018-05-11T21:41:52.294Z,16.80
2018-05-11T21:44:20.633Z,16.80
2018-05-11T21:46:48.136Z,16.70
2018-05-11T21:49:16.399Z,16.60
2018-05-11T21:51:44.756Z,16.60
2018-05-11T21:54:12.245Z,16.60
2018-05-11T21:56:40.943Z,16.50
2018-05-11T21:59:09.304Z,16.50
2018-05-11T22:01:37.693Z,16.50
2018-05-11T22:04:06.027Z,16.50
2018-05-11T22:06:33.516Z,16.50
2018-05-11T22:09:01.961Z,16.40
2018-05-11T22:11:29.452Z,16.40
2018-05-11T22:13:58.654Z,16.50
2018-05-11T22:16:26.950Z,16.40
2018-05-11T22:18:54.501Z,16.40
2018-05-11T22:21:22.764Z,16.30
2018-05-11T22:23:51.048Z,16.30
2018-05-11T22:26:18.543Z,16.30
2018-05-11T22:28:46.084Z,16.30
2018-05-11T22:31:13.616Z,16.30
2018-05-11T22:33:41.145Z,16.20
2018-05-11T22:36:08.672Z,16.10
2018-05-11T22:38:36.148Z,16.10
2018-05-11T22:41:03.690Z,16.00
2018-05-11T22:43:31.171Z,16.00
2018-05-11T22:45:58.788Z,16.00
2018-05-11T22:48:26.412Z,16.10
2018-05-11T22:50:54.686Z,16.10
2018-05-11T22:53:22.253Z,16.10
2018-05-11T22:55:50.670Z,16.20
2018-05-11T22:58:18.193Z,16.20
2018-05-11T23:00:46.548Z,16.10
2018-05-11T23:03:14.169Z,16.00
2018-05-11T23:05:41.902Z,16.00
2018-05-11T23:08:09.421Z,15.90
2018-05-11T23:10:36.981Z,15.90
2018-05-11T23:13:04.523Z,15.90
2018-05-11T23:15:32.083Z,15.80
2018-05-11T23:17:59.588Z,15.90
2018-05-11T23:20:27.859Z,15.90
2018-05-11T23:22:56.133Z,15.90
2018-05-11T23:25:24.414Z,15.90
2018-05-11T23:27:53.570Z,15.80
2018-05-11T23:30:21.061Z,15.80
2018-05-11T23:32:49.336Z,15.80
2018-05-11T23:35:24.428Z,15.90
2018-05-11T23:37:52.041Z,15.90
2018-05-11T23:40:20.313Z,15.90
2018-05-11T23:42:47.823Z,15.90
2018-05-11T23:45:15.501Z,16.00
2018-05-11T23:47:43.000Z,16.00
2018-05-11T23:50:10.549Z,16.00
2018-05-11T23:52:38.836Z,16.00
2018-05-11T23:55:06.338Z,16.00
2018-05-11T23:57:33.941Z,16.00
